ITY1790 LICJ-LIML
Flight info
| Callsign | ITY1790 |
|---|---|
| Flight time | 1h 19m |
| Altitude | 36000 |
| Route | GIANO DCT KARDU DCT EMBOS DCT GIPIX DCT KALMO |
| Aircraft | A320/M-SDE3FGHIRWY/LB1 |
Departure
| Time | 2026-04-27 18:42 |
|---|---|
| Airport | Falcone–Borsellino Airport (LICJ) |
Arrival
| Time | 2026-04-27 20:01 |
|---|---|
| Airport | Milano Linate Airport (LIML) |
| Time | Latitude | Longitude | Altitude | Speed | Heading |
|---|---|---|---|---|---|
| 2026-04-27 18:21 | 38.18552 | 13.10606 | 65 ft | 0 kts | 336° |
| 2026-04-27 18:29 | 38.18542 | 13.10612 | 61 ft | 2 kts | 336° |
| 2026-04-27 18:29 | 38.18526 | 13.10621 | 57 ft | 2 kts | 336° |
| 2026-04-27 18:29 | 38.18510 | 13.10629 | 56 ft | 2 kts | 336° |
| 2026-04-27 18:30 | 38.18495 | 13.10640 | 60 ft | 3 kts | 307° |
| 2026-04-27 18:30 | 38.18487 | 13.10660 | 56 ft | 3 kts | 271° |
| 2026-04-27 18:30 | 38.18487 | 13.10671 | 56 ft | 0 kts | 253° |
| 2026-04-27 18:35 | 38.18486 | 13.10668 | 56 ft | 3 kts | 253° |
| 2026-04-27 18:35 | 38.18470 | 13.10612 | 62 ft | 8 kts | 248° |
| 2026-04-27 18:35 | 38.18455 | 13.10563 | 63 ft | 9 kts | 246° |
| 2026-04-27 18:35 | 38.18404 | 13.10506 | 65 ft | 7 kts | 205° |
| 2026-04-27 18:36 | 38.18378 | 13.10493 | 59 ft | 5 kts | 200° |
| 2026-04-27 18:36 | 38.18347 | 13.10477 | 65 ft | 5 kts | 208° |
| 2026-04-27 18:36 | 38.18310 | 13.10414 | 63 ft | 13 kts | 243° |
| 2026-04-27 18:36 | 38.18276 | 13.10318 | 58 ft | 11 kts | 247° |
| 2026-04-27 18:37 | 38.18248 | 13.10234 | 65 ft | 11 kts | 247° |
| 2026-04-27 18:37 | 38.18215 | 13.10133 | 62 ft | 14 kts | 247° |
| 2026-04-27 18:37 | 38.18177 | 13.10018 | 62 ft | 14 kts | 247° |
| 2026-04-27 18:37 | 38.18142 | 13.09913 | 63 ft | 12 kts | 243° |
| 2026-04-27 18:38 | 38.18079 | 13.09868 | 62 ft | 10 kts | 192° |
| 2026-04-27 18:38 | 38.18031 | 13.09803 | 60 ft | 11 kts | 240° |
| 2026-04-27 18:38 | 38.17988 | 13.09688 | 65 ft | 18 kts | 245° |
| 2026-04-27 18:38 | 38.17936 | 13.09542 | 63 ft | 11 kts | 246° |
| 2026-04-27 18:39 | 38.17904 | 13.09446 | 64 ft | 12 kts | 247° |
| 2026-04-27 18:39 | 38.17875 | 13.09354 | 64 ft | 10 kts | 248° |
| 2026-04-27 18:39 | 38.17858 | 13.09299 | 69 ft | 6 kts | 248° |
| 2026-04-27 18:39 | 38.17796 | 13.09129 | 62 ft | 29 kts | 248° |
| 2026-04-27 18:40 | 38.17731 | 13.08953 | 60 ft | 17 kts | 227° |
| 2026-04-27 18:40 | 38.17641 | 13.08852 | 65 ft | 16 kts | 209° |
| 2026-04-27 18:40 | 38.17546 | 13.08778 | 63 ft | 16 kts | 213° |
| 2026-04-27 18:40 | 38.17495 | 13.08776 | 63 ft | 5 kts | 130° |
| 2026-04-27 18:41 | 38.17489 | 13.08808 | 67 ft | 3 kts | 82° |
| 2026-04-27 18:41 | 38.17492 | 13.08828 | 70 ft | 2 kts | 81° |
| 2026-04-27 18:41 | 38.17499 | 13.08863 | 62 ft | 19 kts | 72° |
| 2026-04-27 18:41 | 38.17654 | 13.09332 | 69 ft | 92 kts | 66° |
| 2026-04-27 18:42 | 38.17984 | 13.10321 | 65 ft | 148 kts | 69° |
| 2026-04-27 18:42 | 38.18273 | 13.11220 | 123 ft | 172 kts | 68° |
| 2026-04-27 18:42 | 38.18917 | 13.13055 | 984 ft | 171 kts | 67° |
| 2026-04-27 18:42 | 38.19395 | 13.14462 | 1543 ft | 181 kts | 67° |
| 2026-04-27 18:43 | 38.19924 | 13.16034 | 1833 ft | 205 kts | 67° |
| 2026-04-27 18:43 | 38.20518 | 13.17800 | 2203 ft | 229 kts | 66° |
| 2026-04-27 18:43 | 38.21443 | 13.19569 | 2635 ft | 253 kts | 42° |
| 2026-04-27 18:43 | 38.22983 | 13.20709 | 3366 ft | 262 kts | 22° |
| 2026-04-27 18:44 | 38.24664 | 13.21592 | 4219 ft | 266 kts | 22° |
| 2026-04-27 18:44 | 38.26392 | 13.22500 | 5091 ft | 271 kts | 22° |
| 2026-04-27 18:44 | 38.28148 | 13.23428 | 5947 ft | 275 kts | 22° |
| 2026-04-27 18:44 | 38.29928 | 13.24368 | 6782 ft | 279 kts | 22° |
| 2026-04-27 18:45 | 38.31777 | 13.25131 | 7588 ft | 281 kts | 6° |
| 2026-04-27 18:45 | 38.33721 | 13.24987 | 8392 ft | 282 kts | 342° |
| 2026-04-27 18:45 | 38.35453 | 13.23825 | 9207 ft | 284 kts | 318° |
| 2026-04-27 18:45 | 38.36783 | 13.21966 | 10052 ft | 286 kts | 309° |
| 2026-04-27 18:46 | 38.38082 | 13.19981 | 10535 ft | 301 kts | 309° |
| 2026-04-27 18:46 | 38.39471 | 13.17847 | 10748 ft | 324 kts | 309° |
| 2026-04-27 18:46 | 38.40942 | 13.15587 | 11235 ft | 335 kts | 309° |
| 2026-04-27 18:46 | 38.42426 | 13.13313 | 11914 ft | 340 kts | 309° |
| 2026-04-27 18:47 | 38.43947 | 13.10989 | 12646 ft | 343 kts | 309° |
| 2026-04-27 18:47 | 38.45486 | 13.08642 | 13366 ft | 347 kts | 309° |
| 2026-04-27 18:47 | 38.47042 | 13.06270 | 14048 ft | 350 kts | 309° |
| 2026-04-27 18:47 | 38.48482 | 13.04071 | 14623 ft | 354 kts | 309° |
| 2026-04-27 18:48 | 38.50068 | 13.01649 | 15227 ft | 357 kts | 309° |
| 2026-04-27 18:48 | 38.51672 | 12.99198 | 15836 ft | 361 kts | 309° |
| 2026-04-27 18:48 | 38.53290 | 12.96727 | 16430 ft | 365 kts | 309° |
| 2026-04-27 18:48 | 38.54922 | 12.94224 | 17030 ft | 368 kts | 309° |
| 2026-04-27 18:49 | 38.56568 | 12.91695 | 17615 ft | 372 kts | 309° |
| 2026-04-27 18:49 | 38.58232 | 12.89133 | 18194 ft | 376 kts | 309° |
| 2026-04-27 18:49 | 38.59909 | 12.86545 | 18722 ft | 380 kts | 309° |
| 2026-04-27 18:49 | 38.61603 | 12.83932 | 19243 ft | 383 kts | 309° |
| 2026-04-27 18:50 | 38.63313 | 12.81299 | 19777 ft | 386 kts | 309° |
| 2026-04-27 18:50 | 38.65032 | 12.78652 | 20309 ft | 389 kts | 309° |
| 2026-04-27 18:50 | 38.66767 | 12.75980 | 20839 ft | 392 kts | 309° |
| 2026-04-27 18:50 | 38.68515 | 12.73283 | 21366 ft | 395 kts | 309° |
| 2026-04-27 18:51 | 38.70272 | 12.70570 | 21888 ft | 398 kts | 309° |
| 2026-04-27 18:51 | 38.72043 | 12.67833 | 22392 ft | 401 kts | 309° |
| 2026-04-27 18:51 | 38.73829 | 12.65071 | 22893 ft | 404 kts | 309° |
| 2026-04-27 18:51 | 38.75630 | 12.62287 | 23382 ft | 407 kts | 309° |
| 2026-04-27 18:52 | 38.77422 | 12.59519 | 23822 ft | 410 kts | 309° |
| 2026-04-27 18:52 | 38.79245 | 12.56701 | 24213 ft | 412 kts | 309° |
| 2026-04-27 18:52 | 38.81084 | 12.53853 | 24623 ft | 414 kts | 309° |
| 2026-04-27 18:53 | 38.84802 | 12.48178 | 25401 ft | 418 kts | 314° |
| 2026-04-27 18:53 | 38.86991 | 12.45709 | 25766 ft | 420 kts | 323° |
| 2026-04-27 18:53 | 38.89503 | 12.43763 | 26131 ft | 423 kts | 334° |
| 2026-04-27 18:53 | 38.92253 | 12.42389 | 26494 ft | 425 kts | 340° |
| 2026-04-27 18:54 | 38.95063 | 12.41167 | 26860 ft | 427 kts | 340° |
| 2026-04-27 18:54 | 38.97877 | 12.39929 | 27214 ft | 429 kts | 340° |
| 2026-04-27 18:54 | 39.00708 | 12.38672 | 27574 ft | 430 kts | 340° |
| 2026-04-27 18:54 | 39.03546 | 12.37409 | 27926 ft | 432 kts | 340° |
| 2026-04-27 18:55 | 39.06356 | 12.36159 | 28263 ft | 434 kts | 339° |
| 2026-04-27 18:55 | 39.09215 | 12.34887 | 28602 ft | 435 kts | 339° |
| 2026-04-27 18:55 | 39.12088 | 12.33607 | 28925 ft | 437 kts | 339° |
| 2026-04-27 18:55 | 39.14970 | 12.32320 | 29242 ft | 438 kts | 339° |
| 2026-04-27 18:56 | 39.17858 | 12.31028 | 29553 ft | 440 kts | 339° |
| 2026-04-27 18:56 | 39.20756 | 12.29732 | 29850 ft | 441 kts | 339° |
| 2026-04-27 18:56 | 39.23670 | 12.28434 | 30151 ft | 443 kts | 339° |
| 2026-04-27 18:56 | 39.26587 | 12.27135 | 30392 ft | 444 kts | 339° |
| 2026-04-27 18:57 | 39.29510 | 12.25835 | 30623 ft | 445 kts | 339° |
| 2026-04-27 18:57 | 39.32446 | 12.24525 | 30843 ft | 447 kts | 339° |
| 2026-04-27 18:57 | 39.35351 | 12.23220 | 31045 ft | 448 kts | 339° |
| 2026-04-27 18:57 | 39.38292 | 12.21897 | 31294 ft | 448 kts | 339° |
| 2026-04-27 18:58 | 39.41235 | 12.20574 | 31590 ft | 447 kts | 339° |
| 2026-04-27 18:58 | 39.43218 | 12.19683 | 31779 ft | 446 kts | 339° |
| 2026-04-27 18:58 | 39.47105 | 12.17941 | 32168 ft | 446 kts | 340° |
| 2026-04-27 18:58 | 39.50031 | 12.16627 | 32454 ft | 445 kts | 340° |
| 2026-04-27 18:59 | 39.52956 | 12.15309 | 32741 ft | 444 kts | 340° |
| 2026-04-27 18:59 | 39.55878 | 12.13987 | 33031 ft | 444 kts | 340° |
| 2026-04-27 18:59 | 39.58790 | 12.12669 | 33309 ft | 443 kts | 340° |
| 2026-04-27 18:59 | 39.61699 | 12.11355 | 33594 ft | 442 kts | 340° |
| 2026-04-27 19:00 | 39.63549 | 12.10520 | 33772 ft | 442 kts | 340° |
| 2026-04-27 19:00 | 39.66550 | 12.09166 | 34066 ft | 441 kts | 340° |
| 2026-04-27 19:00 | 39.69452 | 12.07857 | 34316 ft | 441 kts | 340° |
| 2026-04-27 19:00 | 39.72312 | 12.06561 | 34557 ft | 440 kts | 340° |
| 2026-04-27 19:01 | 39.75201 | 12.05252 | 34811 ft | 439 kts | 340° |
| 2026-04-27 19:01 | 39.78088 | 12.03943 | 35031 ft | 439 kts | 340° |
| 2026-04-27 19:01 | 39.80975 | 12.02634 | 35270 ft | 438 kts | 340° |
| 2026-04-27 19:01 | 39.83849 | 12.01330 | 35499 ft | 437 kts | 340° |
| 2026-04-27 19:02 | 39.86723 | 12.00028 | 35713 ft | 437 kts | 339° |
| 2026-04-27 19:02 | 39.89590 | 11.98729 | 35926 ft | 436 kts | 339° |
| 2026-04-27 19:02 | 39.92456 | 11.97426 | 36087 ft | 436 kts | 339° |
| 2026-04-27 19:03 | 39.98167 | 11.94821 | 36130 ft | 433 kts | 339° |
| 2026-04-27 19:03 | 40.03815 | 11.92236 | 36129 ft | 433 kts | 339° |
| 2026-04-27 19:04 | 40.09495 | 11.89628 | 36132 ft | 432 kts | 339° |
| 2026-04-27 19:04 | 40.15181 | 11.87020 | 36133 ft | 432 kts | 339° |
| 2026-04-27 19:05 | 40.20869 | 11.84411 | 36134 ft | 432 kts | 339° |
| 2026-04-27 19:05 | 40.26548 | 11.81799 | 36139 ft | 433 kts | 339° |
| 2026-04-27 19:06 | 40.32196 | 11.79194 | 36140 ft | 432 kts | 339° |
| 2026-04-27 19:06 | 40.37874 | 11.76578 | 36144 ft | 432 kts | 339° |
| 2026-04-27 19:07 | 40.43560 | 11.73950 | 36144 ft | 432 kts | 339° |
| 2026-04-27 19:07 | 40.49237 | 11.71316 | 36148 ft | 432 kts | 339° |
| 2026-04-27 19:08 | 40.54880 | 11.68696 | 36145 ft | 432 kts | 339° |
| 2026-04-27 19:08 | 40.60554 | 11.66055 | 36147 ft | 432 kts | 339° |
| 2026-04-27 19:09 | 40.66230 | 11.63406 | 36144 ft | 432 kts | 339° |
| 2026-04-27 19:09 | 40.71900 | 11.60761 | 36148 ft | 432 kts | 339° |
| 2026-04-27 19:10 | 40.77199 | 11.58283 | 36150 ft | 432 kts | 339° |
| 2026-04-27 19:10 | 40.82866 | 11.55622 | 36149 ft | 432 kts | 339° |
| 2026-04-27 19:11 | 40.88524 | 11.52968 | 36151 ft | 432 kts | 339° |
| 2026-04-27 19:11 | 40.94186 | 11.50302 | 36148 ft | 432 kts | 339° |
| 2026-04-27 19:12 | 40.99846 | 11.47642 | 36149 ft | 432 kts | 339° |
| 2026-04-27 19:12 | 41.05470 | 11.44987 | 36150 ft | 431 kts | 339° |
| 2026-04-27 19:13 | 41.11128 | 11.42313 | 36150 ft | 431 kts | 339° |
| 2026-04-27 19:13 | 41.16785 | 11.39629 | 36149 ft | 431 kts | 339° |
| 2026-04-27 19:14 | 41.22436 | 11.36949 | 36149 ft | 431 kts | 339° |
| 2026-04-27 19:14 | 41.28094 | 11.34263 | 36149 ft | 431 kts | 339° |
| 2026-04-27 19:15 | 41.33742 | 11.31568 | 36153 ft | 431 kts | 339° |
| 2026-04-27 19:15 | 41.39392 | 11.28878 | 36153 ft | 431 kts | 339° |
| 2026-04-27 19:16 | 41.44999 | 11.26197 | 36147 ft | 431 kts | 339° |
| 2026-04-27 19:16 | 41.50648 | 11.23496 | 36148 ft | 431 kts | 339° |
| 2026-04-27 19:17 | 41.56287 | 11.20788 | 36147 ft | 431 kts | 339° |
| 2026-04-27 19:17 | 41.61927 | 11.18066 | 36147 ft | 431 kts | 339° |
| 2026-04-27 19:18 | 41.67571 | 11.15345 | 36151 ft | 431 kts | 339° |
| 2026-04-27 19:18 | 41.73228 | 11.12621 | 36149 ft | 431 kts | 339° |
| 2026-04-27 19:19 | 41.78835 | 11.09908 | 36146 ft | 431 kts | 339° |
| 2026-04-27 19:19 | 41.84476 | 11.07169 | 36147 ft | 431 kts | 339° |
| 2026-04-27 19:20 | 41.90096 | 11.04444 | 36145 ft | 431 kts | 340° |
| 2026-04-27 19:20 | 41.95745 | 11.01709 | 36147 ft | 431 kts | 340° |
| 2026-04-27 19:21 | 42.01395 | 10.98963 | 36142 ft | 431 kts | 339° |
| 2026-04-27 19:21 | 42.06127 | 10.96655 | 36144 ft | 431 kts | 340° |
| 2026-04-27 19:22 | 42.11731 | 10.93913 | 36145 ft | 431 kts | 340° |
| 2026-04-27 19:22 | 42.17379 | 10.91138 | 36145 ft | 431 kts | 339° |
| 2026-04-27 19:23 | 42.23019 | 10.88369 | 36147 ft | 431 kts | 340° |
| 2026-04-27 19:23 | 42.28659 | 10.85605 | 36146 ft | 431 kts | 340° |
| 2026-04-27 19:24 | 42.34290 | 10.82831 | 36148 ft | 431 kts | 340° |
| 2026-04-27 19:24 | 42.39927 | 10.80048 | 36146 ft | 431 kts | 340° |
| 2026-04-27 19:25 | 42.45556 | 10.77260 | 36143 ft | 431 kts | 340° |
| 2026-04-27 19:25 | 42.51194 | 10.74468 | 36143 ft | 431 kts | 340° |
| 2026-04-27 19:26 | 42.56472 | 10.71850 | 36143 ft | 430 kts | 340° |
| 2026-04-27 19:26 | 42.61857 | 10.69174 | 36145 ft | 430 kts | 340° |
| 2026-04-27 19:27 | 42.67491 | 10.66370 | 36143 ft | 430 kts | 340° |
| 2026-04-27 19:27 | 42.73110 | 10.63564 | 36141 ft | 430 kts | 339° |
| 2026-04-27 19:28 | 42.78727 | 10.60752 | 36141 ft | 430 kts | 339° |
| 2026-04-27 19:28 | 42.84346 | 10.57940 | 36139 ft | 430 kts | 340° |
| 2026-04-27 19:29 | 42.89922 | 10.55144 | 36144 ft | 430 kts | 340° |
| 2026-04-27 19:29 | 42.95532 | 10.52322 | 36144 ft | 430 kts | 340° |
| 2026-04-27 19:30 | 43.01299 | 10.50206 | 36142 ft | 429 kts | 348° |
| 2026-04-27 19:30 | 43.07162 | 10.48671 | 36143 ft | 429 kts | 349° |
| 2026-04-27 19:31 | 43.13035 | 10.47138 | 36146 ft | 429 kts | 349° |
| 2026-04-27 19:31 | 43.18905 | 10.45589 | 36148 ft | 429 kts | 348° |
| 2026-04-27 19:32 | 43.24762 | 10.44031 | 36143 ft | 429 kts | 348° |
| 2026-04-27 19:32 | 43.30620 | 10.42474 | 36145 ft | 428 kts | 348° |
| 2026-04-27 19:33 | 43.36433 | 10.40927 | 36141 ft | 428 kts | 349° |
| 2026-04-27 19:33 | 43.42287 | 10.39377 | 36137 ft | 428 kts | 348° |
| 2026-04-27 19:34 | 43.48130 | 10.37823 | 36137 ft | 428 kts | 348° |
| 2026-04-27 19:34 | 43.53962 | 10.36267 | 36131 ft | 427 kts | 348° |
| 2026-04-27 19:35 | 43.59806 | 10.34706 | 36129 ft | 427 kts | 348° |
| 2026-04-27 19:35 | 43.65651 | 10.33143 | 36128 ft | 427 kts | 348° |
| 2026-04-27 19:36 | 43.71483 | 10.31584 | 36129 ft | 427 kts | 348° |
| 2026-04-27 19:36 | 43.77320 | 10.30012 | 35944 ft | 427 kts | 348° |
| 2026-04-27 19:36 | 43.80233 | 10.29226 | 35656 ft | 426 kts | 348° |
| 2026-04-27 19:37 | 43.83124 | 10.28283 | 34830 ft | 429 kts | 342° |
| 2026-04-27 19:37 | 43.85901 | 10.26737 | 33926 ft | 433 kts | 334° |
| 2026-04-27 19:37 | 43.88612 | 10.24881 | 33159 ft | 432 kts | 334° |
| 2026-04-27 19:37 | 43.91285 | 10.23053 | 32650 ft | 426 kts | 334° |
| 2026-04-27 19:38 | 43.93928 | 10.21247 | 32051 ft | 422 kts | 334° |
| 2026-04-27 19:38 | 43.96549 | 10.19455 | 31482 ft | 418 kts | 334° |
| 2026-04-27 19:38 | 43.99111 | 10.17703 | 30929 ft | 415 kts | 334° |
| 2026-04-27 19:38 | 44.01693 | 10.15936 | 30361 ft | 412 kts | 334° |
| 2026-04-27 19:39 | 44.04195 | 10.14028 | 29748 ft | 410 kts | 326° |
| 2026-04-27 19:39 | 44.06403 | 10.11567 | 29206 ft | 406 kts | 316° |
| 2026-04-27 19:39 | 44.08250 | 10.08623 | 28660 ft | 403 kts | 306° |
| 2026-04-27 19:39 | 44.09824 | 10.05416 | 28125 ft | 399 kts | 305° |
| 2026-04-27 19:40 | 44.11378 | 10.02236 | 27593 ft | 396 kts | 305° |
| 2026-04-27 19:40 | 44.12923 | 9.99086 | 27082 ft | 392 kts | 305° |
| 2026-04-27 19:40 | 44.14454 | 9.95967 | 26568 ft | 389 kts | 305° |
| 2026-04-27 19:40 | 44.15974 | 9.92865 | 26090 ft | 386 kts | 305° |
| 2026-04-27 19:41 | 44.17482 | 9.89779 | 25596 ft | 383 kts | 304° |
| 2026-04-27 19:41 | 44.18975 | 9.86716 | 25135 ft | 381 kts | 304° |
| 2026-04-27 19:41 | 44.20455 | 9.83672 | 24672 ft | 378 kts | 304° |
| 2026-04-27 19:41 | 44.21924 | 9.80641 | 24205 ft | 376 kts | 304° |
| 2026-04-27 19:42 | 44.23383 | 9.77628 | 23758 ft | 374 kts | 304° |
| 2026-04-27 19:42 | 44.24832 | 9.74626 | 23232 ft | 372 kts | 304° |
| 2026-04-27 19:42 | 44.26269 | 9.71647 | 22770 ft | 369 kts | 304° |
| 2026-04-27 19:42 | 44.27693 | 9.68694 | 22310 ft | 365 kts | 304° |
| 2026-04-27 19:43 | 44.29107 | 9.65761 | 21849 ft | 363 kts | 304° |
| 2026-04-27 19:43 | 44.30511 | 9.62850 | 21380 ft | 360 kts | 304° |
| 2026-04-27 19:43 | 44.32089 | 9.60137 | 20877 ft | 360 kts | 315° |
| 2026-04-27 19:43 | 44.34018 | 9.57927 | 20356 ft | 360 kts | 326° |
| 2026-04-27 19:44 | 44.36170 | 9.56145 | 19844 ft | 359 kts | 329° |
| 2026-04-27 19:44 | 44.38327 | 9.54389 | 19335 ft | 359 kts | 329° |
| 2026-04-27 19:44 | 44.40483 | 9.52622 | 18844 ft | 359 kts | 329° |
| 2026-04-27 19:44 | 44.42635 | 9.50851 | 18345 ft | 358 kts | 329° |
| 2026-04-27 19:45 | 44.44783 | 9.49078 | 17783 ft | 358 kts | 329° |
| 2026-04-27 19:45 | 44.46928 | 9.47302 | 17227 ft | 358 kts | 329° |
| 2026-04-27 19:45 | 44.49044 | 9.45550 | 16694 ft | 358 kts | 329° |
| 2026-04-27 19:45 | 44.51187 | 9.43781 | 16163 ft | 358 kts | 329° |
| 2026-04-27 19:46 | 44.53330 | 9.42012 | 15636 ft | 357 kts | 329° |
| 2026-04-27 19:46 | 44.55467 | 9.40244 | 15120 ft | 357 kts | 329° |
| 2026-04-27 19:46 | 44.57604 | 9.38478 | 14616 ft | 355 kts | 329° |
| 2026-04-27 19:46 | 44.59848 | 9.37036 | 14109 ft | 355 kts | 343° |
| 2026-04-27 19:47 | 44.62276 | 9.36434 | 13589 ft | 354 kts | 355° |
| 2026-04-27 19:47 | 44.64730 | 9.36195 | 13031 ft | 353 kts | 355° |
| 2026-04-27 19:47 | 44.67179 | 9.35959 | 12491 ft | 351 kts | 355° |
| 2026-04-27 19:47 | 44.69614 | 9.35721 | 11953 ft | 350 kts | 355° |
| 2026-04-27 19:48 | 44.72029 | 9.35480 | 11429 ft | 347 kts | 355° |
| 2026-04-27 19:48 | 44.74420 | 9.35237 | 11132 ft | 338 kts | 355° |
| 2026-04-27 19:48 | 44.76714 | 9.35003 | 11079 ft | 322 kts | 355° |
| 2026-04-27 19:48 | 44.78889 | 9.34789 | 11083 ft | 305 kts | 357° |
| 2026-04-27 19:49 | 44.80917 | 9.35219 | 11085 ft | 290 kts | 24° |
| 2026-04-27 19:49 | 44.82468 | 9.36897 | 10986 ft | 281 kts | 53° |
| 2026-04-27 19:49 | 44.83197 | 9.39388 | 10791 ft | 275 kts | 82° |
| 2026-04-27 19:49 | 44.83362 | 9.42062 | 10531 ft | 274 kts | 85° |
| 2026-04-27 19:50 | 44.83496 | 9.44732 | 10216 ft | 272 kts | 85° |
| 2026-04-27 19:50 | 44.83703 | 9.47379 | 9889 ft | 270 kts | 75° |
| 2026-04-27 19:50 | 44.84454 | 9.49757 | 9653 ft | 262 kts | 52° |
| 2026-04-27 19:50 | 44.85736 | 9.51491 | 9400 ft | 255 kts | 30° |
| 2026-04-27 19:51 | 44.87379 | 9.52350 | 9010 ft | 253 kts | 6° |
| 2026-04-27 19:51 | 44.89118 | 9.52226 | 8627 ft | 251 kts | 343° |
| 2026-04-27 19:51 | 44.90679 | 9.51165 | 8245 ft | 249 kts | 322° |
| 2026-04-27 19:51 | 44.92027 | 9.49629 | 7869 ft | 249 kts | 320° |
| 2026-04-27 19:52 | 44.93375 | 9.48093 | 7501 ft | 249 kts | 320° |
| 2026-04-27 19:52 | 44.94268 | 9.47080 | 7258 ft | 249 kts | 320° |
| 2026-04-27 19:52 | 44.96048 | 9.45067 | 6836 ft | 246 kts | 321° |
| 2026-04-27 19:52 | 44.97377 | 9.43564 | 6522 ft | 243 kts | 320° |
| 2026-04-27 19:53 | 44.99996 | 9.40592 | 5859 ft | 239 kts | 320° |
| 2026-04-27 19:53 | 45.01286 | 9.39129 | 5531 ft | 237 kts | 321° |
| 2026-04-27 19:53 | 45.02568 | 9.37674 | 5212 ft | 235 kts | 321° |
| 2026-04-27 19:54 | 45.03828 | 9.36242 | 5037 ft | 230 kts | 321° |
| 2026-04-27 19:54 | 45.05075 | 9.34822 | 5036 ft | 231 kts | 321° |
| 2026-04-27 19:54 | 45.06328 | 9.33394 | 5035 ft | 231 kts | 321° |
| 2026-04-27 19:54 | 45.07666 | 9.32138 | 5036 ft | 231 kts | 336° |
| 2026-04-27 19:55 | 45.09212 | 9.31511 | 4952 ft | 232 kts | 354° |
| 2026-04-27 19:55 | 45.10821 | 9.31339 | 4826 ft | 232 kts | 356° |
| 2026-04-27 19:55 | 45.12428 | 9.31170 | 4695 ft | 232 kts | 355° |
| 2026-04-27 19:55 | 45.14034 | 9.30997 | 4568 ft | 231 kts | 355° |
| 2026-04-27 19:56 | 45.15642 | 9.30822 | 4440 ft | 231 kts | 355° |
| 2026-04-27 19:56 | 45.17245 | 9.30643 | 4301 ft | 231 kts | 355° |
| 2026-04-27 19:56 | 45.18843 | 9.30461 | 4184 ft | 230 kts | 355° |
| 2026-04-27 19:56 | 45.20441 | 9.30288 | 4056 ft | 230 kts | 355° |
| 2026-04-27 19:57 | 45.22036 | 9.30118 | 3920 ft | 230 kts | 355° |
| 2026-04-27 19:57 | 45.23633 | 9.29948 | 3807 ft | 230 kts | 355° |
| 2026-04-27 19:57 | 45.25214 | 9.29778 | 3714 ft | 223 kts | 355° |
| 2026-04-27 19:57 | 45.26738 | 9.29615 | 3511 ft | 218 kts | 355° |
| 2026-04-27 19:58 | 45.28242 | 9.29454 | 3249 ft | 216 kts | 355° |
| 2026-04-27 19:58 | 45.29718 | 9.29296 | 2972 ft | 215 kts | 355° |
| 2026-04-27 19:58 | 45.31205 | 9.29137 | 2691 ft | 214 kts | 355° |
| 2026-04-27 19:58 | 45.32688 | 9.28978 | 2410 ft | 214 kts | 355° |
| 2026-04-27 19:59 | 45.34163 | 9.28819 | 2157 ft | 210 kts | 355° |
| 2026-04-27 19:59 | 45.35578 | 9.28668 | 1861 ft | 198 kts | 355° |
| 2026-04-27 19:59 | 45.36909 | 9.28525 | 1600 ft | 186 kts | 355° |
| 2026-04-27 19:59 | 45.38158 | 9.28390 | 1359 ft | 175 kts | 355° |
| 2026-04-27 20:00 | 45.39331 | 9.28265 | 1143 ft | 163 kts | 355° |
| 2026-04-27 20:00 | 45.40417 | 9.28148 | 977 ft | 152 kts | 355° |
| 2026-04-27 20:00 | 45.41455 | 9.28036 | 779 ft | 148 kts | 355° |
| 2026-04-27 20:00 | 45.42470 | 9.27927 | 586 ft | 146 kts | 355° |
| 2026-04-27 20:01 | 45.43478 | 9.27823 | 408 ft | 144 kts | 355° |
| 2026-04-27 20:01 | 45.44430 | 9.27735 | 358 ft | 124 kts | 355° |
| 2026-04-27 20:01 | 45.45165 | 9.27624 | 357 ft | 92 kts | 355° |
| 2026-04-27 20:01 | 45.45422 | 9.27640 | 362 ft | 2 kts | 75° |
| 2026-04-27 20:02 | 45.45425 | 9.27671 | 361 ft | 2 kts | 83° |
| 2026-04-27 20:02 | 45.45430 | 9.27715 | 370 ft | 5 kts | 74° |
| 2026-04-27 20:02 | 45.45444 | 9.27746 | 363 ft | 3 kts | 52° |
| 2026-04-27 20:02 | 45.45486 | 9.27797 | 360 ft | 14 kts | 26° |
| 2026-04-27 20:03 | 45.45573 | 9.27815 | 361 ft | 12 kts | 2° |
| 2026-04-27 20:03 | 45.45661 | 9.27821 | 361 ft | 20 kts | 3° |
| 2026-04-27 20:03 | 45.45831 | 9.27825 | 364 ft | 12 kts | 355° |
| 2026-04-27 20:03 | 45.45908 | 9.27840 | 367 ft | 13 kts | 16° |
| 2026-04-27 20:04 | 45.45969 | 9.27849 | 364 ft | 0 kts | 2° |